Time;durP1;ratioP1;P1;durP2;ratioP2;P2;SDS_P1;SDS_P2;PMS_P1;PMS_P2;Temp;Humidity;BMP_temperature;BMP_pressure;BME280_temperature;BME280_humidity;BME280_pressure;Samples;Min_cycle;Max_cycle;Signal;HPM_P1;HPM_P2
2021/10/28 00:14:01;;;;;;;5.60;2.97;;;;;;;6.21;100.00;99845.53;2571085;55;20132;-69
2021/10/28 00:16:33;;;;;;;4.60;3.15;;;;;;;6.26;100.00;99851.34;2571611;55;20105;-69
2021/10/28 00:19:02;;;;;;;4.87;3.08;;;;;;;6.29;100.00;99849.41;2571452;55;20166;-69
2021/10/28 00:21:33;;;;;;;5.72;4.12;;;;;;;6.32;100.00;99854.53;2566231;55;20143;-69
2021/10/28 00:24:02;;;;;;;5.97;3.45;;;;;;;6.34;100.00;99856.09;2572303;55;20558;-69
2021/10/28 00:26:31;;;;;;;6.45;4.00;;;;;;;6.36;100.00;99850.69;2576401;55;20121;-69
2021/10/28 00:29:02;;;;;;;7.55;4.43;;;;;;;6.38;100.00;99867.31;2577255;55;20133;-68
2021/10/28 00:31:34;;;;;;;7.45;4.03;;;;;;;6.41;100.00;99856.47;2578059;55;20116;-68
2021/10/28 00:34:03;;;;;;;7.37;5.07;;;;;;;6.43;100.00;99865.19;2577843;55;20098;-68
2021/10/28 00:36:31;;;;;;;8.85;5.53;;;;;;;6.44;100.00;99868.69;2577661;55;20519;-69
2021/10/28 00:38:59;;;;;;;7.82;5.45;;;;;;;6.47;100.00;99869.31;2577680;55;20121;-68
2021/10/28 00:41:28;;;;;;;9.25;5.78;;;;;;;6.47;100.00;99879.91;2577793;55;20671;-69
2021/10/28 00:43:58;;;;;;;10.38;7.18;;;;;;;6.50;100.00;99881.50;2577160;55;20546;-69
2021/10/28 00:46:28;;;;;;;8.00;5.78;;;;;;;6.53;100.00;99887.44;2577870;55;20143;-68
2021/10/28 00:48:59;;;;;;;9.20;5.97;;;;;;;6.54;100.00;99897.06;2577838;55;20519;-69
2021/10/28 00:51:29;;;;;;;11.07;6.47;;;;;;;6.53;100.00;99889.22;2577549;55;20542;-69
2021/10/28 00:53:59;;;;;;;7.78;5.97;;;;;;;6.58;100.00;99902.16;2577602;55;20121;-69
2021/10/28 00:56:29;;;;;;;8.52;5.75;;;;;;;6.58;100.00;99896.84;2578099;55;20496;-68
2021/10/28 00:58:56;;;;;;;9.02;6.00;;;;;;;6.58;100.00;99900.34;2577214;55;20110;-69
2021/10/28 01:01:24;;;;;;;7.80;5.35;;;;;;;6.58;100.00;99897.69;2577822;55;20511;-68
2021/10/28 01:03:52;;;;;;;11.48;4.80;;;;;;;6.62;100.00;99904.47;2577772;55;20117;-69
2021/10/28 01:06:23;;;;;;;6.57;4.95;;;;;;;6.65;100.00;99903.41;2577536;55;20114;-68
2021/10/28 01:08:51;;;;;;;8.55;4.60;;;;;;;6.65;100.00;99911.38;2577653;55;20101;-71
2021/10/28 01:11:20;;;;;;;8.77;5.82;;;;;;;6.64;100.00;99917.63;2577637;55;20632;-71
2021/10/28 01:13:48;;;;;;;6.70;5.07;;;;;;;6.63;100.00;99929.19;2577466;55;20139;-69
2021/10/28 01:16:16;;;;;;;11.15;5.93;;;;;;;6.61;100.00;99928.41;2578010;55;20125;-69
2021/10/28 01:18:44;;;;;;;10.35;6.75;;;;;;;6.57;100.00;99940.22;2572402;55;20121;-69
2021/10/28 01:21:13;;;;;;;13.40;7.05;;;;;;;6.53;100.00;99948.37;2577689;55;20167;-69
2021/10/28 01:23:41;;;;;;;14.07;7.62;;;;;;;6.48;100.00;99954.97;2577630;55;20124;-69
2021/10/28 01:26:13;;;;;;;16.52;8.00;;;;;;;6.37;100.00;99948.63;2577756;55;20120;-69
2021/10/28 01:28:49;;;;;;;14.23;8.07;;;;;;;6.36;100.00;99949.59;2577633;55;20123;-69
2021/10/28 01:31:20;;;;;;;15.82;8.77;;;;;;;6.25;100.00;99955.63;2577389;55;20113;-69
2021/10/28 01:33:49;;;;;;;12.60;7.12;;;;;;;6.16;100.00;99969.50;2577946;55;20113;-70
2021/10/28 01:36:18;;;;;;;10.95;6.70;;;;;;;6.09;100.00;99970.84;2577056;55;20126;-70
2021/10/28 01:38:46;;;;;;;13.32;7.30;;;;;;;6.02;100.00;99970.44;2577189;55;20649;-69
2021/10/28 01:41:15;;;;;;;11.52;7.00;;;;;;;6.07;100.00;99986.88;2577788;55;20631;-73
2021/10/28 01:43:43;;;;;;;10.18;6.68;;;;;;;5.97;100.00;99976.00;2577509;55;20109;-73
2021/10/28 01:46:11;;;;;;;10.65;6.90;;;;;;;6.04;100.00;100005.59;2572534;55;20143;-73
2021/10/28 01:48:40;;;;;;;10.77;5.45;;;;;;;5.99;100.00;100019.13;2577759;55;20117;-73
2021/10/28 01:51:09;;;;;;;8.93;4.85;;;;;;;6.02;100.00;100023.41;2577392;55;20527;-73
2021/10/28 01:53:40;;;;;;;8.35;5.62;;;;;;;5.93;100.00;100029.28;2577598;55;20504;-73
2021/10/28 01:56:09;;;;;;;8.40;5.45;;;;;;;5.94;100.00;100053.00;2577970;55;20102;-73
2021/10/28 01:58:37;;;;;;;6.78;4.60;;;;;;;5.90;100.00;100059.44;2576977;55;20127;-73
2021/10/28 02:01:06;;;;;;;7.22;4.87;;;;;;;5.89;100.00;100068.34;2577872;55;20125;-73
2021/10/28 02:03:34;;;;;;;5.93;3.47;;;;;;;5.85;100.00;100064.22;2577283;55;20120;-73
2021/10/28 02:06:03;;;;;;;6.87;4.05;;;;;;;5.84;100.00;100078.41;2577460;55;20101;-73
2021/10/28 02:08:31;;;;;;;7.43;4.45;;;;;;;5.82;100.00;100096.19;2577375;55;20121;-73
2021/10/28 02:11:00;;;;;;;5.82;3.92;;;;;;;5.76;100.00;100097.44;2577488;55;20164;-73
2021/10/28 02:13:28;;;;;;;5.85;3.92;;;;;;;5.71;100.00;100116.25;2577292;55;20535;-70
2021/10/28 02:15:56;;;;;;;8.88;4.30;;;;;;;5.67;100.00;100125.34;2577733;55;20135;-73
2021/10/28 02:18:24;;;;;;;4.30;3.20;;;;;;;5.60;100.00;100145.19;2577360;55;20136;-73
2021/10/28 02:20:52;;;;;;;4.12;2.90;;;;;;;5.57;100.00;100145.41;2577397;55;20113;-70
2021/10/28 02:23:20;;;;;;;5.70;4.03;;;;;;;5.50;100.00;100155.53;2572586;55;20139;-69
2021/10/28 02:25:48;;;;;;;4.20;3.20;;;;;;;5.50;100.00;100166.09;2577631;55;20536;-69
2021/10/28 02:28:17;;;;;;;5.12;3.80;;;;;;;5.48;100.00;100167.16;2571942;55;20131;-69
2021/10/28 02:30:45;;;;;;;6.53;3.75;;;;;;;5.50;100.00;100171.41;2577727;55;20125;-69
2021/10/28 02:33:13;;;;;;;5.22;3.00;;;;;;;5.51;100.00;100193.41;2577293;55;20123;-69
2021/10/28 02:35:41;;;;;;;6.10;3.70;;;;;;;5.52;100.00;100203.06;2576894;55;20124;-69
2021/10/28 02:38:08;;;;;;;6.55;3.40;;;;;;;5.49;100.00;100205.88;2577483;55;20109;-69
2021/10/28 02:40:36;;;;;;;5.75;3.08;;;;;;;5.45;100.00;100220.25;2577362;55;20132;-69
2021/10/28 02:43:04;;;;;;;4.78;2.83;;;;;;;5.41;100.00;100228.41;2572119;55;20132;-69
2021/10/28 02:45:33;;;;;;;5.22;3.08;;;;;;;5.34;100.00;100219.13;2577335;55;20105;-70
2021/10/28 02:48:01;;;;;;;8.80;3.67;;;;;;;5.41;100.00;100241.63;2577186;55;20113;-70
2021/10/28 02:50:29;;;;;;;5.40;3.35;;;;;;;5.42;100.00;100248.62;2577188;55;20139;-69
2021/10/28 02:52:56;;;;;;;6.25;4.20;;;;;;;5.42;100.00;100259.19;2577247;55;20113;-69
2021/10/28 02:55:24;;;;;;;6.93;4.18;;;;;;;5.38;100.00;100268.25;2577500;55;20124;-69
2021/10/28 02:57:52;;;;;;;6.62;4.20;;;;;;;5.38;100.00;100273.53;2577258;55;20136;-69
2021/10/28 03:00:20;;;;;;;5.87;3.87;;;;;;;5.37;100.00;100292.19;2577565;55;20154;-69
2021/10/28 03:02:49;;;;;;;6.37;4.47;;;;;;;5.40;100.00;100302.56;2577145;55;20511;-69
2021/10/28 03:05:17;;;;;;;8.70;4.68;;;;;;;5.40;100.00;100305.22;2577421;55;20121;-69
2021/10/28 03:07:44;;;;;;;5.18;4.05;;;;;;;5.40;100.00;100316.62;2577170;55;20098;-69
2021/10/28 03:10:14;;;;;;;5.78;4.07;;;;;;;5.42;100.00;100332.41;2577297;55;20111;-69
2021/10/28 03:12:43;;;;;;;6.60;4.15;;;;;;;5.38;100.00;100337.03;2577241;55;20116;-69
2021/10/28 03:15:12;;;;;;;6.12;4.30;;;;;;;5.41;100.00;100352.75;2572200;55;20181;-69
2021/10/28 03:17:55;;;;;;;6.60;4.07;;;;;;;5.36;100.00;100349.50;2576838;55;20134;-69
2021/10/28 03:25:54;;;;;;;6.85;4.05;;;;;;;5.41;100.00;100392.44;2577128;55;20135;-69
2021/10/28 03:28:22;;;;;;;8.32;4.85;;;;;;;5.40;100.00;100400.47;2577282;55;20122;-69
2021/10/28 03:30:51;;;;;;;6.97;4.40;;;;;;;5.41;100.00;100404.81;2572232;55;20105;-72
2021/10/28 03:33:21;;;;;;;7.68;4.62;;;;;;;5.41;100.00;100408.31;2576951;55;20637;-73
2021/10/28 03:35:52;;;;;;;7.45;4.72;;;;;;;5.39;100.00;100412.00;2577419;55;20670;-73
2021/10/28 03:38:23;;;;;;;7.07;4.60;;;;;;;5.40;100.00;100425.09;2576927;55;20135;-69
2021/10/28 04:19:55;;;;;;;6.25;3.12;;;;;;;5.25;100.00;100537.12;2565880;55;20131;-73
2021/10/28 04:30:43;;;;;;;8.35;4.37;;;;;;;5.28;100.00;100576.63;2573011;55;20128;-73
2021/10/28 04:33:10;;;;;;;6.10;4.45;;;;;;;5.32;100.00;100580.81;2577374;55;20135;-73
2021/10/28 04:35:39;;;;;;;7.97;4.50;;;;;;;5.33;100.00;100585.16;2578052;55;20113;-73
2021/10/28 04:38:07;;;;;;;6.37;3.92;;;;;;;5.35;100.00;100595.66;2577746;55;20129;-73
2021/10/28 04:40:36;;;;;;;6.47;4.35;;;;;;;5.34;100.00;100597.47;2577726;55;20125;-73
2021/10/28 04:43:03;;;;;;;6.87;4.53;;;;;;;5.31;100.00;100602.94;2577724;55;20109;-73
2021/10/28 04:45:31;;;;;;;7.00;4.30;;;;;;;5.33;100.00;100608.97;2577462;55;20124;-73
2021/10/28 04:47:59;;;;;;;9.68;5.18;;;;;;;5.36;100.00;100614.09;2572623;55;20113;-72
2021/10/28 04:50:27;;;;;;;8.77;4.93;;;;;;;5.33;100.00;100616.91;2577911;55;20115;-69
2021/10/28 04:52:55;;;;;;;5.15;3.85;;;;;;;5.35;100.00;100635.34;2577404;55;20125;-69
2021/10/28 04:55:23;;;;;;;7.97;6.62;;;;;;;5.31;100.00;100626.75;2577763;55;20117;-69
2021/10/28 04:57:52;;;;;;;8.40;7.55;;;;;;;5.30;100.00;100640.87;2577643;55;20121;-70
2021/10/28 05:00:20;;;;;;;6.75;4.53;;;;;;;5.31;100.00;100641.75;2577740;55;20154;-69
2021/10/28 05:02:47;;;;;;;14.77;7.85;;;;;;;5.31;100.00;100641.75;2577095;55;20148;-70
2021/10/28 05:05:15;;;;;;;44.03;18.58;;;;;;;5.34;100.00;100652.16;2577792;55;20117;-73
2021/10/28 05:07:43;;;;;;;11.60;6.47;;;;;;;5.35;100.00;100670.59;2577541;55;20117;-73
2021/10/28 05:10:11;;;;;;;16.45;8.48;;;;;;;5.28;100.00;100662.16;2578385;55;20146;-70
2021/10/28 05:12:38;;;;;;;38.58;24.50;;;;;;;5.28;100.00;100662.16;2579080;55;20127;-70
2021/10/28 05:15:08;;;;;;;20.52;13.15;;;;;;;5.42;100.00;100684.34;2577266;55;20131;-70
2021/10/28 05:17:36;;;;;;;27.00;14.15;;;;;;;5.40;100.00;100694.16;2574326;55;20143;-70
2021/10/28 05:20:05;;;;;;;19.48;9.68;;;;;;;5.38;100.00;100699.53;2575467;55;20715;-70
2021/10/28 05:22:33;;;;;;;23.67;12.52;;;;;;;5.39;100.00;100709.16;2568919;55;20131;-70
2021/10/28 05:25:00;;;;;;;45.08;20.90;;;;;;;5.45;100.00;100715.09;2575511;55;20132;-69
2021/10/28 05:27:28;;;;;;;14.77;8.82;;;;;;;5.44;100.00;100711.56;2574202;55;20128;-69
2021/10/28 05:29:56;;;;;;;49.58;24.27;;;;;;;5.44;100.00;100719.50;2566715;55;21223;-69
2021/10/28 05:32:25;;;;;;;11.65;6.80;;;;;;;5.55;100.00;100734.81;2574908;55;20163;-70
2021/10/28 05:34:58;;;;;;;8.45;5.53;;;;;;;5.55;100.00;100740.12;2571989;55;20124;-70
2021/10/28 05:37:27;;;;;;;10.73;6.65;;;;;;;5.56;100.00;100752.41;2575059;55;20122;-69
2021/10/28 05:39:59;;;;;;;15.20;10.18;;;;;;;5.55;100.00;100761.28;2575021;55;20602;-70
2021/10/28 05:42:30;;;;;;;17.85;12.65;;;;;;;5.56;100.00;100753.28;2576335;55;20165;-71
2021/10/28 05:44:58;;;;;;;10.65;6.97;;;;;;;5.56;100.00;100763.88;2578583;55;20508;-71
2021/10/28 05:47:27;;;;;;;12.70;6.70;;;;;;;5.57;100.00;100770.00;2578194;55;20132;-72
2021/10/28 05:49:56;;;;;;;8.13;6.12;;;;;;;5.59;100.00;100776.06;2576269;55;20476;-74
2021/10/28 05:52:24;;;;;;;10.35;7.12;;;;;;;5.62;100.00;100783.00;2578472;55;20131;-75
2021/10/28 05:54:51;;;;;;;12.48;6.30;;;;;;;5.61;100.00;100795.38;2578221;55;20131;-74
2021/10/28 05:57:20;;;;;;;9.65;6.97;;;;;;;5.59;100.00;100794.59;2577386;55;20090;-76
2021/10/28 05:59:47;;;;;;;10.80;6.68;;;;;;;5.61;100.00;100805.97;2576997;55;20124;-75
2021/10/28 06:02:15;;;;;;;9.50;6.28;;;;;;;5.62;100.00;100812.97;2575780;55;20129;-75
2021/10/28 06:04:44;;;;;;;9.18;6.18;;;;;;;5.65;100.00;100822.53;2576134;55;20114;-75
2021/10/28 06:07:12;;;;;;;10.13;7.03;;;;;;;5.66;100.00;100833.03;2576128;55;20136;-74
2021/10/28 06:09:40;;;;;;;7.90;5.97;;;;;;;5.63;100.00;100833.22;2576456;55;20114;-75
2021/10/28 06:12:09;;;;;;;8.27;5.68;;;;;;;5.64;100.00;100839.34;2576762;55;20616;-74
2021/10/28 06:14:37;;;;;;;9.82;6.18;;;;;;;5.66;100.00;100861.28;2575782;55;20121;-77
2021/10/28 06:17:07;;;;;;;8.75;6.05;;;;;;;5.66;100.00;100859.53;2575887;55;20485;-77
2021/10/28 06:19:36;;;;;;;8.38;5.85;;;;;;;5.70;100.00;100869.00;2576454;55;20114;-76
2021/10/28 06:22:06;;;;;;;11.40;5.68;;;;;;;5.73;100.00;100870.63;2576444;55;20097;-74
2021/10/28 06:24:33;;;;;;;8.93;5.45;;;;;;;5.77;100.00;100877.50;2576434;55;20117;-75
2021/10/28 06:27:01;;;;;;;9.48;6.30;;;;;;;5.77;100.00;100884.56;2577405;55;20101;-76
2021/10/28 06:29:29;;;;;;;9.57;5.72;;;;;;;5.80;100.00;100897.66;2576215;55;20125;-76
2021/10/28 06:31:57;;;;;;;9.02;6.10;;;;;;;5.79;100.00;100894.16;2576882;55;20129;-75
2021/10/28 06:34:32;;;;;;;9.77;6.53;;;;;;;5.83;100.00;100902.81;2577261;55;20124;-75
2021/10/28 06:37:04;;;;;;;10.80;6.40;;;;;;;5.83;100.00;100908.09;2577247;55;20655;-75
2021/10/28 06:39:33;;;;;;;8.57;6.85;;;;;;;5.84;100.00;100915.09;2577409;55;20121;-75
2021/10/28 06:42:03;;;;;;;8.88;7.03;;;;;;;5.86;100.00;100921.16;2577445;55;20653;-76
2021/10/28 06:44:31;;;;;;;8.55;4.80;;;;;;;5.90;100.00;100929.81;2575940;55;20121;-75
2021/10/28 06:46:59;;;;;;;6.55;4.93;;;;;;;5.93;100.00;100930.50;2570542;55;20129;-74
2021/10/28 06:49:29;;;;;;;5.68;4.20;;;;;;;5.97;100.00;100931.22;2575439;55;20120;-76
2021/10/28 06:51:57;;;;;;;9.05;4.40;;;;;;;6.07;100.00;100944.84;2574971;55;20567;-75
2021/10/28 06:54:28;;;;;;;6.30;4.30;;;;;;;6.12;100.00;100937.53;2575874;55;20136;-75
2021/10/28 06:57:14;;;;;;;9.10;4.50;;;;;;;6.17;100.00;100948.72;2576058;55;20514;-75
2021/10/28 07:02:34;;;;;;;5.82;3.90;;;;;;;6.22;100.00;100943.19;2577451;55;20123;-76
2021/10/28 07:05:04;;;;;;;5.35;4.07;;;;;;;6.33;100.00;100943.47;2577040;55;20114;-75
2021/10/28 07:07:34;;;;;;;4.80;3.53;;;;;;;6.42;100.00;100947.44;2577264;55;20139;-75
2021/10/28 07:10:06;;;;;;;6.63;4.23;;;;;;;6.50;100.00;100950.50;2577466;55;20105;-75
2021/10/28 07:12:45;;;;;;;6.22;3.97;;;;;;;6.61;100.00;100957.88;2577140;55;20108;-75
2021/10/28 07:15:20;;;;;;;5.25;3.62;;;;;;;6.69;100.00;100960.09;2577488;55;20549;-75
2021/10/28 07:18:02;;;;;;;5.30;3.30;;;;;;;6.74;100.00;100971.31;2572240;55;20174;-75
2021/10/28 07:26:22;;;;;;;4.30;3.22;;;;;;;6.83;100.00;100996.47;2569014;55;20129;-76
2021/10/28 07:29:53;;;;;;;3.95;3.03;;;;;;;6.82;100.00;100998.28;2577142;55;20121;-75
2021/10/28 07:32:21;;;;;;;3.97;3.20;;;;;;;6.88;100.00;101001.53;2577190;55;20133;-76
2021/10/28 07:35:10;;;;;;;3.87;3.00;;;;;;;6.92;100.00;101009.22;2577010;55;20124;-75
2021/10/28 08:00:22;;;;;;;6.20;3.62;;;;;;;7.26;100.00;101058.69;2577075;55;20117;-71
2021/10/28 08:19:30;;;;;;;6.95;4.30;;;;;;;7.29;100.00;101095.72;2576554;55;19999;-76
2021/10/28 08:22:00;;;;;;;7.30;4.15;;;;;;;7.24;100.00;101088.00;2577123;55;20118;-75
2021/10/28 08:29:58;;;;;;;5.72;4.20;;;;;;;7.15;100.00;101125.66;2571974;55;20523;-71
2021/10/28 08:32:26;;;;;;;10.93;4.30;;;;;;;7.13;100.00;101130.19;2576969;55;20126;-72
2021/10/28 08:34:57;;;;;;;6.70;4.18;;;;;;;7.14;100.00;101135.41;2576720;55;20136;-71
2021/10/28 08:37:31;;;;;;;5.18;3.97;;;;;;;7.18;100.00;101128.13;2576968;55;20795;-72
2021/10/28 08:39:59;;;;;;;6.93;3.83;;;;;;;7.20;100.00;101131.56;2571745;55;20121;-72
2021/10/28 08:42:27;;;;;;;8.02;3.80;;;;;;;7.24;100.00;101135.78;2571689;55;20129;-71
2021/10/28 08:44:58;;;;;;;8.57;4.43;;;;;;;7.28;100.00;101139.97;2577805;55;20121;-72
2021/10/28 08:47:27;;;;;;;6.10;4.20;;;;;;;7.25;100.00;101145.44;2577631;55;20503;-71
2021/10/28 08:50:00;;;;;;;9.98;4.18;;;;;;;7.27;100.00;101140.91;2577649;55;20131;-72
2021/10/28 08:55:26;;;;;;;5.60;3.90;;;;;;;7.27;100.00;101164.78;2558463;55;20130;-71
2021/10/28 08:58:18;;;;;;;8.43;4.57;;;;;;;7.20;100.00;101158.09;2577454;55;20129;-72
2021/10/28 09:24:06;;;;;;;6.15;3.60;;;;;;;7.08;100.00;101202.09;2577746;55;20114;-71
2021/10/28 09:29:34;;;;;;;7.30;3.08;;;;;;;7.22;100.00;101204.84;2576545;55;20121;-75
2021/10/28 09:32:13;;;;;;;12.98;4.85;;;;;;;7.34;100.00;101205.12;2577306;55;20129;-74
2021/10/28 09:34:59;;;;;;;8.48;4.65;;;;;;;7.40;100.00;101209.25;2577571;55;20627;-75
2021/10/28 09:46:15;;;;;;;5.12;3.00;;;;;;;7.65;100.00;101222.91;2577901;55;20007;-75
2021/10/28 09:51:42;;;;;;;3.17;2.00;;;;;;;7.66;100.00;101243.22;2578071;55;20562;-75
2021/10/28 09:54:18;;;;;;;3.20;2.00;;;;;;;7.61;100.00;101247.91;2572101;55;20109;-75
2021/10/28 09:59:47;;;;;;;2.83;1.85;;;;;;;7.58;100.00;101260.53;2577717;55;20112;-76
2021/10/28 10:02:19;;;;;;;2.45;1.95;;;;;;;7.51;100.00;101249.34;2576905;55;20139;-75
2021/10/28 10:04:48;;;;;;;3.30;2.15;;;;;;;7.41;100.00;101253.44;2577528;55;20118;-75
2021/10/28 10:07:17;;;;;;;2.62;2.05;;;;;;;7.38;100.00;101246.53;2577513;55;20560;-75
2021/10/28 10:09:46;;;;;;;4.00;2.25;;;;;;;7.41;100.00;101264.06;2577075;55;20131;-75
2021/10/28 10:12:16;;;;;;;3.47;2.25;;;;;;;7.39;100.00;101264.16;2577468;55;20129;-74
2021/10/28 10:14:45;;;;;;;4.07;2.72;;;;;;;7.36;100.00;101273.13;2577548;55;20660;-75
2021/10/28 10:17:16;;;;;;;4.40;2.90;;;;;;;7.36;100.00;101278.44;2577054;55;20137;-75
2021/10/28 10:19:48;;;;;;;5.18;3.03;;;;;;;7.35;100.00;101282.03;2577647;55;20515;-74
2021/10/28 10:22:35;;;;;;;5.78;3.15;;;;;;;7.35;100.00;101284.69;2572149;55;20144;-75
2021/10/28 10:25:50;;;;;;;9.63;4.12;;;;;;;7.47;100.00;101279.69;2577138;55;20633;-76
2021/10/28 11:21:46;;;;;;;3.55;2.22;;;;;;;7.30;100.00;101362.84;2577249;55;20571;-72
2021/10/28 11:27:24;;;;;;;3.12;2.45;;;;;;;7.31;100.00;101357.44;2577395;55;20638;-71
2021/10/28 11:33:17;;;;;;;2.37;1.90;;;;;;;7.24;100.00;101362.22;2577036;55;20542;-72
2021/10/28 12:23:47;;;;;;;6.25;3.00;;;;;;;7.00;100.00;101406.75;2577898;55;20121;-76
2021/10/28 12:46:28;;;;;;;6.18;3.28;;;;;;;6.94;100.00;101425.66;2556426;56;20111;-72
2021/10/28 13:03:39;;;;;;;7.87;3.95;;;;;;;7.02;100.00;101442.06;2572506;55;20133;-71
2021/10/28 13:48:23;;;;;;;4.78;3.03;;;;;;;6.82;100.00;101473.06;2577339;55;20128;-71
2021/10/28 13:51:06;;;;;;;5.78;2.72;;;;;;;6.73;100.00;101451.41;2577527;55;20511;-72
2021/10/28 14:21:42;;;;;;;6.75;3.40;;;;;;;6.59;100.00;101494.47;2577314;55;20121;-76
2021/10/28 14:30:00;;;;;;;4.70;3.22;;;;;;;6.57;100.00;101496.34;2577519;55;20492;-76
2021/10/28 14:38:40;;;;;;;4.57;3.27;;;;;;;6.57;100.00;101502.53;2560484;56;20678;-76
2021/10/28 15:03:27;;;;;;;8.55;4.57;;;;;;;6.33;100.00;101477.97;2577130;55;20105;-72
2021/10/28 15:28:15;;;;;;;6.30;4.68;;;;;;;6.18;100.00;101468.94;2577218;55;20112;-71
2021/10/28 15:31:14;;;;;;;;;;;;;;;6.33;100.00;101465.56;2572520;55;20117;-72
2021/10/28 15:36:34;;;;;;;10.15;3.22;;;;;;;6.16;100.00;101461.03;2577228;55;20120;-76
2021/10/28 15:39:10;;;;;;;9.93;3.80;;;;;;;6.16;100.00;101460.16;2577207;55;20796;-76
2021/10/28 15:41:58;;;;;;;10.77;5.35;;;;;;;6.18;100.00;101466.28;2577455;55;20506;-76
2021/10/28 16:23:27;;;;;;;12.43;6.55;;;;;;;6.04;100.00;101469.53;2567596;55;20109;-71
2021/10/28 16:25:55;;;;;;;13.95;6.57;;;;;;;6.01;100.00;101464.31;2577836;55;20131;-72
2021/10/28 16:28:25;;;;;;;11.27;7.62;;;;;;;5.99;100.00;101459.94;2577697;55;20109;-72
2021/10/28 16:30:52;;;;;;;14.50;8.75;;;;;;;5.98;100.00;101460.03;2577619;55;20489;-72
2021/10/28 16:33:20;;;;;;;14.07;7.87;;;;;;;5.99;100.00;101452.00;2577911;55;20272;-72
2021/10/28 16:35:48;;;;;;;17.45;11.60;;;;;;;5.88;100.00;101438.38;2572749;55;20121;-72
2021/10/28 16:38:18;;;;;;;19.65;10.52;;;;;;;5.88;100.00;101430.44;2577361;55;20523;-71
2021/10/28 16:40:48;;;;;;;17.42;9.88;;;;;;;5.95;100.00;101449.56;2577853;55;20114;-71
2021/10/28 16:43:16;;;;;;;29.60;16.10;;;;;;;5.90;100.00;101455.06;2577579;55;20125;-71
2021/10/28 16:45:46;;;;;;;21.92;11.10;;;;;;;5.90;100.00;101438.31;2572700;55;20127;-72
2021/10/28 16:48:14;;;;;;;31.50;18.57;;;;;;;5.90;100.00;101444.47;2578008;55;20133;-71
2021/10/28 16:50:42;;;;;;;45.55;25.02;;;;;;;5.93;100.00;101464.66;2577749;55;20622;-71
2021/10/28 16:53:10;;;;;;;44.72;25.65;;;;;;;5.88;100.00;101462.22;2572319;55;20125;-71
2021/10/28 16:55:40;;;;;;;41.78;23.85;;;;;;;5.86;100.00;101464.06;2577886;55;20121;-72
2021/10/28 16:58:10;;;;;;;40.15;25.65;;;;;;;5.85;100.00;101475.59;2577430;55;20101;-72
2021/10/28 17:00:38;;;;;;;28.95;18.17;;;;;;;5.79;100.00;101462.62;2572377;55;20113;-72
2021/10/28 17:03:06;;;;;;;21.90;13.77;;;;;;;5.79;100.00;101460.84;2577453;55;20709;-76
2021/10/28 17:05:34;;;;;;;13.30;9.20;;;;;;;5.79;100.00;101458.19;2572625;55;20113;-76
2021/10/28 17:08:01;;;;;;;10.57;7.28;;;;;;;5.78;100.00;101456.47;2576742;55;20125;-72
2021/10/28 17:10:29;;;;;;;15.00;8.23;;;;;;;5.78;100.00;101472.38;2572700;55;20101;-72
2021/10/28 17:12:58;;;;;;;13.10;7.90;;;;;;;5.77;100.00;101465.34;2577739;55;20167;-72
2021/10/28 17:15:27;;;;;;;14.60;6.78;;;;;;;5.61;100.00;101432.50;2577517;55;20122;-71
2021/10/28 17:17:55;;;;;;;11.00;6.25;;;;;;;5.81;100.00;101458.09;2572440;55;20125;-69
2021/10/28 17:20:23;;;;;;;10.13;6.35;;;;;;;5.79;100.00;101473.19;2577743;55;20115;-69
2021/10/28 17:22:52;;;;;;;9.88;5.60;;;;;;;5.69;100.00;101463.00;2577445;55;20120;-71
2021/10/28 17:25:21;;;;;;;9.40;4.25;;;;;;;5.76;100.00;101486.59;2572884;55;20122;-70
2021/10/28 17:27:50;;;;;;;7.25;4.12;;;;;;;5.77;100.00;101496.25;2577875;55;20117;-71
2021/10/28 17:30:18;;;;;;;9.25;5.10;;;;;;;5.73;100.00;101487.56;2577147;55;20121;-70
2021/10/28 17:32:47;;;;;;;9.43;5.53;;;;;;;5.75;100.00;101483.06;2577785;55;20105;-71
2021/10/28 17:35:16;;;;;;;7.50;5.32;;;;;;;5.71;100.00;101466.47;2577816;55;20128;-68
2021/10/28 17:37:44;;;;;;;7.47;4.57;;;;;;;5.71;100.00;101455.88;2577330;55;20489;-71
2021/10/28 17:40:12;;;;;;;5.20;3.47;;;;;;;5.71;100.00;101455.88;2572526;55;20113;-76
2021/10/28 17:42:42;;;;;;;5.90;3.55;;;;;;;5.70;100.00;101453.28;2577836;55;20117;-77
2021/10/28 17:45:12;;;;;;;5.68;3.42;;;;;;;5.69;100.00;101452.41;2577818;55;20140;-77
2021/10/28 17:47:41;;;;;;;5.68;3.30;;;;;;;5.72;100.00;101451.44;2579156;55;20115;-76
2021/10/28 17:50:10;;;;;;;4.90;3.65;;;;;;;5.71;100.00;101452.34;2579535;55;20100;-76
2021/10/28 17:52:41;;;;;;;6.05;3.40;;;;;;;5.69;100.00;101447.13;2577782;55;20125;-77
2021/10/28 17:55:10;;;;;;;6.15;3.70;;;;;;;5.64;100.00;101438.53;2577687;55;20124;-76
2021/10/28 17:57:38;;;;;;;6.55;3.70;;;;;;;5.61;100.00;101420.13;2577471;55;20117;-77
2021/10/28 18:00:09;;;;;;;6.03;3.25;;;;;;;5.62;100.00;101416.56;2577214;55;20131;-74
2021/10/28 18:02:37;;;;;;;;;;;;;;;5.75;100.00;101408.91;2577823;55;20110;-77
2021/10/28 18:05:06;;;;;;;7.05;5.00;;;;;;;5.64;100.00;101406.75;2577519;55;19996;-77
2021/10/28 18:07:36;;;;;;;10.38;4.37;;;;;;;5.34;100.00;101366.56;2577300;55;20125;-74
2021/10/28 18:10:05;;;;;;;9.15;4.47;;;;;;;5.42;100.00;101365.34;2572617;55;20106;-73
2021/10/28 18:12:34;;;;;;;7.68;4.80;;;;;;;5.59;100.00;101390.19;2577516;55;20139;-74
2021/10/28 18:15:03;;;;;;;10.00;4.20;;;;;;;5.56;100.00;101382.41;2571890;55;20121;-74
2021/10/28 18:17:32;;;;;;;6.93;3.08;;;;;;;5.46;100.00;101378.44;2572360;55;20135;-73
2021/10/28 18:20:00;;;;;;;7.00;3.37;;;;;;;5.38;100.00;101366.38;2572141;55;20109;-73
2021/10/28 18:22:28;;;;;;;6.18;3.50;;;;;;;5.54;100.00;101394.84;2577243;55;20123;-73
2021/10/28 18:24:58;;;;;;;3.90;2.97;;;;;;;5.29;100.00;101364.12;2577471;55;20116;-73
2021/10/28 18:27:26;;;;;;;8.43;3.95;;;;;;;5.52;100.00;101396.72;2577268;55;20112;-73
2021/10/28 18:29:53;;;;;;;7.45;2.90;;;;;;;5.06;100.00;101331.56;2577315;55;20105;-73
2021/10/28 18:32:21;;;;;;;7.70;3.58;;;;;;;5.54;100.00;101408.09;2572424;55;20106;-73
2021/10/28 18:34:49;;;;;;;4.55;2.95;;;;;;;5.28;100.00;101357.12;2572367;55;20623;-73
2021/10/28 18:37:17;;;;;;;6.82;4.20;;;;;;;5.55;100.00;101399.22;2577196;55;20537;-71
2021/10/28 18:39:45;;;;;;;7.40;3.90;;;;;;;5.60;100.00;101397.22;2572309;55;20121;-74
2021/10/28 18:42:14;;;;;;;5.05;3.67;;;;;;;5.60;100.00;101399.00;2572463;55;20121;-74
2021/10/28 18:44:42;;;;;;;7.47;4.18;;;;;;;5.57;100.00;101386.75;2577212;55;20128;-74
2021/10/28 18:47:10;;;;;;;4.97;3.30;;;;;;;5.61;100.00;101396.31;2577480;55;20124;-74
2021/10/28 18:49:38;;;;;;;5.05;3.60;;;;;;;5.53;100.00;101372.78;2577360;55;20511;-72
2021/10/28 18:52:06;;;;;;;6.32;3.50;;;;;;;5.53;100.00;101382.53;2577154;55;20122;-77
2021/10/28 18:54:34;;;;;;;11.55;5.35;;;;;;;5.57;100.00;101390.28;2577568;55;20112;-76
2021/10/28 18:57:02;;;;;;;12.43;5.28;;;;;;;5.60;100.00;101376.03;2577430;55;20109;-75
2021/10/28 18:59:31;;;;;;;9.93;6.10;;;;;;;5.61;100.00;101368.97;2576958;55;20518;-75
2021/10/28 19:02:00;;;;;;;7.30;4.93;;;;;;;5.56;100.00;101353.28;2577498;55;20106;-75
2021/10/28 19:04:27;;;;;;;7.65;5.20;;;;;;;5.62;100.00;101363.63;2572267;55;20132;-75
2021/10/28 19:06:57;;;;;;;5.68;4.22;;;;;;;5.65;100.00;101357.28;2576916;55;20120;-76
2021/10/28 19:09:26;;;;;;;9.82;5.32;;;;;;;5.67;100.00;101355.47;2577432;55;20117;-76
2021/10/28 19:11:54;;;;;;;10.93;4.10;;;;;;;5.63;100.00;101352.09;2577236;55;20495;-72
2021/10/28 19:14:22;;;;;;;9.60;5.25;;;;;;;5.66;100.00;101343.13;2571948;55;20682;-75
2021/10/28 19:16:51;;;;;;;7.53;3.62;;;;;;;5.68;100.00;101346.59;2577371;55;20125;-77
2021/10/28 19:19:19;;;;;;;7.35;3.90;;;;;;;5.75;100.00;101349.81;2577120;55;20113;-76
2021/10/28 19:21:46;;;;;;;6.43;3.90;;;;;;;5.74;100.00;101348.94;2577135;55;20117;-76
2021/10/28 19:24:15;;;;;;;8.90;4.68;;;;;;;5.74;100.00;101343.66;2577361;55;20135;-73
2021/10/28 19:26:43;;;;;;;8.75;4.32;;;;;;;5.77;100.00;101358.56;2571706;55;20670;-71
2021/10/28 19:29:11;;;;;;;7.25;3.83;;;;;;;5.78;100.00;101342.59;2571660;55;20147;-70
2021/10/28 19:31:46;;;;;;;9.40;4.45;;;;;;;5.81;100.00;101338.94;2572520;55;20129;-70